sensor_id;sensor_type;location;lat;lon;timestamp;pressure;altitude;pressure_sealevel;temperature;humidity
20015;BME280;61787;42.022;23.078;2024-01-16T00:00:45;95557.34;;;6.33;63.28
20015;BME280;61787;42.022;23.078;2024-01-16T00:01:46;95549.94;;;6.37;63.16
20015;BME280;61787;42.022;23.078;2024-01-16T00:02:48;95549.28;;;6.29;63.65
20015;BME280;61787;42.022;23.078;2024-01-16T00:03:49;95552.44;;;6.24;64.00
20015;BME280;61787;42.022;23.078;2024-01-16T00:04:51;95554.00;;;6.21;64.03
20015;BME280;61787;42.022;23.078;2024-01-16T00:05:53;95559.06;;;6.19;63.95
20015;BME280;61787;42.022;23.078;2024-01-16T00:06:55;95557.88;;;6.20;63.96
20015;BME280;61787;42.022;23.078;2024-01-16T00:07:56;95553.25;;;6.17;64.11
20015;BME280;61787;42.022;23.078;2024-01-16T00:09:01;95555.22;;;6.17;64.03
20015;BME280;61787;42.022;23.078;2024-01-16T00:10:03;95553.66;;;6.19;64.23
20015;BME280;61787;42.022;23.078;2024-01-16T00:11:05;95543.19;;;6.21;64.31
20015;BME280;61787;42.022;23.078;2024-01-16T00:12:07;95535.84;;;6.22;64.11
20015;BME280;61787;42.022;23.078;2024-01-16T00:13:08;95535.84;;;6.22;64.24
20015;BME280;61787;42.022;23.078;2024-01-16T00:14:10;95537.38;;;6.23;64.05
20015;BME280;61787;42.022;23.078;2024-01-16T00:15:12;95535.78;;;6.25;63.95
20015;BME280;61787;42.022;23.078;2024-01-16T00:16:13;95538.91;;;6.24;64.10
20015;BME280;61787;42.022;23.078;2024-01-16T00:17:15;95535.44;;;6.23;64.21
20015;BME280;61787;42.022;23.078;2024-01-16T00:18:17;95535.47;;;6.20;64.34
20015;BME280;61787;42.022;23.078;2024-01-16T00:19:19;95537.88;;;6.14;64.60
20015;BME280;61787;42.022;23.078;2024-01-16T00:20:20;95542.16;;;6.08;64.89
20015;BME280;61787;42.022;23.078;2024-01-16T00:21:24;95538.31;;;6.09;64.92
20015;BME280;61787;42.022;23.078;2024-01-16T00:22:27;95544.06;;;6.11;64.76
20015;BME280;61787;42.022;23.078;2024-01-16T00:23:28;95541.72;;;6.13;64.82
20015;BME280;61787;42.022;23.078;2024-01-16T00:24:33;95549.47;;;6.11;64.72
20015;BME280;61787;42.022;23.078;2024-01-16T00:25:35;95548.38;;;6.08;64.57
20015;BME280;61787;42.022;23.078;2024-01-16T00:26:36;95552.66;;;6.02;64.87
20015;BME280;61787;42.022;23.078;2024-01-16T00:27:38;95557.31;;;6.02;64.67
20015;BME280;61787;42.022;23.078;2024-01-16T00:28:42;95561.19;;;6.01;64.65
20015;BME280;61787;42.022;23.078;2024-01-16T00:29:44;95566.59;;;6.01;64.73
20015;BME280;61787;42.022;23.078;2024-01-16T00:30:46;95568.50;;;6.04;64.57
20015;BME280;61787;42.022;23.078;2024-01-16T00:31:47;95571.16;;;6.07;64.38
20015;BME280;61787;42.022;23.078;2024-01-16T00:32:49;95566.13;;;6.09;64.21
20015;BME280;61787;42.022;23.078;2024-01-16T00:33:51;95569.53;;;6.14;63.69
20015;BME280;61787;42.022;23.078;2024-01-16T00:34:52;95565.31;;;6.13;64.01
20015;BME280;61787;42.022;23.078;2024-01-16T00:35:54;95568.78;;;6.13;63.88
20015;BME280;61787;42.022;23.078;2024-01-16T00:36:56;95565.31;;;6.13;64.01
20015;BME280;61787;42.022;23.078;2024-01-16T00:37:57;95564.63;;;6.05;64.09
20015;BME280;61787;42.022;23.078;2024-01-16T00:38:59;95562.72;;;6.02;64.30
20015;BME280;61787;42.022;23.078;2024-01-16T00:40:01;95562.72;;;6.02;64.54
20015;BME280;61787;42.022;23.078;2024-01-16T00:41:02;95562.78;;;5.98;64.89
20015;BME280;61787;42.022;23.078;2024-01-16T00:42:04;95555.41;;;5.99;64.87
20015;BME280;61787;42.022;23.078;2024-01-16T00:43:07;95555.00;;;6.00;65.01
20015;BME280;61787;42.022;23.078;2024-01-16T00:44:08;95544.56;;;6.02;65.09
20015;BME280;61787;42.022;23.078;2024-01-16T00:45:12;95546.91;;;6.00;65.33
20015;BME280;61787;42.022;23.078;2024-01-16T00:46:13;95550.00;;;5.99;65.41
20015;BME280;61787;42.022;23.078;2024-01-16T00:47:15;95551.91;;;6.02;65.32
20015;BME280;61787;42.022;23.078;2024-01-16T00:48:17;95559.19;;;6.08;65.09
20015;BME280;61787;42.022;23.078;2024-01-16T00:49:20;95555.25;;;6.13;64.99
20015;BME280;61787;42.022;23.078;2024-01-16T00:50:22;95554.19;;;6.07;65.12
20015;BME280;61787;42.022;23.078;2024-01-16T00:51:26;95549.66;;;5.97;65.32
20015;BME280;61787;42.022;23.078;2024-01-16T00:52:27;95549.75;;;5.82;66.05
20015;BME280;61787;42.022;23.078;2024-01-16T00:53:29;95545.59;;;5.74;66.30
20015;BME280;61787;42.022;23.078;2024-01-16T00:54:31;95541.78;;;5.68;66.42
20015;BME280;61787;42.022;23.078;2024-01-16T00:55:32;95543.00;;;5.63;66.73
20015;BME280;61787;42.022;23.078;2024-01-16T00:56:35;95540.72;;;5.62;67.06
20015;BME280;61787;42.022;23.078;2024-01-16T00:57:37;95538.44;;;5.57;67.15
20015;BME280;61787;42.022;23.078;2024-01-16T00:58:39;95539.63;;;5.52;67.54
20015;BME280;61787;42.022;23.078;2024-01-16T00:59:41;95537.31;;;5.50;68.00
20015;BME280;61787;42.022;23.078;2024-01-16T01:00:42;95542.31;;;5.52;68.31
20015;BME280;61787;42.022;23.078;2024-01-16T01:01:44;95544.25;;;5.55;68.43
20015;BME280;61787;42.022;23.078;2024-01-16T01:02:46;95537.25;;;5.58;68.50
20015;BME280;61787;42.022;23.078;2024-01-16T01:03:47;95545.34;;;5.58;68.63
20015;BME280;61787;42.022;23.078;2024-01-16T01:04:49;95536.47;;;5.61;68.71
20015;BME280;61787;42.022;23.078;2024-01-16T01:05:51;95529.03;;;5.68;68.51
20015;BME280;61787;42.022;23.078;2024-01-16T01:06:53;95538.28;;;5.71;68.42
20015;BME280;61787;42.022;23.078;2024-01-16T01:07:55;95532.13;;;5.67;68.51
20015;BME280;61787;42.022;23.078;2024-01-16T01:08:57;95540.63;;;5.69;68.46
20015;BME280;61787;42.022;23.078;2024-01-16T01:10:00;95544.50;;;5.68;68.70
20015;BME280;61787;42.022;23.078;2024-01-16T01:11:02;95547.63;;;5.63;68.76
20015;BME280;61787;42.022;23.078;2024-01-16T01:12:04;95536.78;;;5.66;68.51
20015;BME280;61787;42.022;23.078;2024-01-16T01:13:06;95544.06;;;5.73;68.64
20015;BME280;61787;42.022;23.078;2024-01-16T01:14:08;95538.97;;;5.79;68.78
20015;BME280;61787;42.022;23.078;2024-01-16T01:15:09;95542.09;;;5.77;69.10
20015;BME280;61787;42.022;23.078;2024-01-16T01:16:12;95538.59;;;5.80;69.42
20015;BME280;61787;42.022;23.078;2024-01-16T01:17:13;95536.28;;;5.79;69.84
20015;BME280;61787;42.022;23.078;2024-01-16T01:18:15;95536.63;;;5.81;69.79
20015;BME280;61787;42.022;23.078;2024-01-16T01:19:17;95540.81;;;5.89;69.45
20015;BME280;61787;42.022;23.078;2024-01-16T01:20:19;95542.69;;;5.92;69.13
20015;BME280;61787;42.022;23.078;2024-01-16T01:21:21;95550.41;;;5.93;68.67
20015;BME280;61787;42.022;23.078;2024-01-16T01:22:22;95551.97;;;5.95;68.77
20015;BME280;61787;42.022;23.078;2024-01-16T01:23:24;95549.66;;;5.97;68.71
20015;BME280;61787;42.022;23.078;2024-01-16T01:24:26;95545.34;;;5.99;68.54
20015;BME280;61787;42.022;23.078;2024-01-16T01:25:27;95547.66;;;6.01;68.41
20015;BME280;61787;42.022;23.078;2024-01-16T01:26:29;95542.22;;;6.04;67.62
20015;BME280;61787;42.022;23.078;2024-01-16T01:27:30;95549.16;;;6.05;67.56
20015;BME280;61787;42.022;23.078;2024-01-16T01:28:32;95548.41;;;6.05;67.52
20015;BME280;61787;42.022;23.078;2024-01-16T01:29:34;95542.56;;;6.06;67.53
20015;BME280;61787;42.022;23.078;2024-01-16T01:30:35;95539.47;;;6.08;67.48
20015;BME280;61787;42.022;23.078;2024-01-16T01:31:37;95546.41;;;6.09;67.46
20015;BME280;61787;42.022;23.078;2024-01-16T01:32:39;95539.41;;;6.11;67.23
20015;BME280;61787;42.022;23.078;2024-01-16T01:33:41;95550.59;;;6.14;67.00
20015;BME280;61787;42.022;23.078;2024-01-16T01:34:44;95541.78;;;6.09;67.09
20015;BME280;61787;42.022;23.078;2024-01-16T01:35:45;95550.59;;;6.14;66.90
20015;BME280;61787;42.022;23.078;2024-01-16T01:36:47;95547.91;;;6.14;67.05
20015;BME280;61787;42.022;23.078;2024-01-16T01:37:48;95547.91;;;6.14;67.07
20015;BME280;61787;42.022;23.078;2024-01-16T01:38:50;95548.25;;;6.19;66.92
20015;BME280;61787;42.022;23.078;2024-01-16T01:39:52;95549.44;;;6.15;67.03
20015;BME280;61787;42.022;23.078;2024-01-16T01:40:53;95559.59;;;6.07;66.87
20015;BME280;61787;42.022;23.078;2024-01-16T01:41:55;95555.34;;;6.06;67.02
20015;BME280;61787;42.022;23.078;2024-01-16T01:42:57;95549.09;;;6.13;66.88
20015;BME280;61787;42.022;23.078;2024-01-16T01:43:58;95554.06;;;6.18;66.67
20015;BME280;61787;42.022;23.078;2024-01-16T01:45:00;95554.38;;;6.23;66.53
20015;BME280;61787;42.022;23.078;2024-01-16T01:46:08;95551.63;;;6.27;66.52
20015;BME280;61787;42.022;23.078;2024-01-16T01:47:11;95545.44;;;6.26;66.40
20015;BME280;61787;42.022;23.078;2024-01-16T01:48:13;95545.81;;;6.28;66.27
20015;BME280;61787;42.022;23.078;2024-01-16T01:49:15;95544.63;;;6.29;66.34
20015;BME280;61787;42.022;23.078;2024-01-16T01:50:17;95546.16;;;6.30;66.35
20015;BME280;61787;42.022;23.078;2024-01-16T01:51:19;95549.19;;;6.36;66.35
20015;BME280;61787;42.022;23.078;2024-01-16T01:52:21;95548.38;;;6.39;66.37
20015;BME280;61787;42.022;23.078;2024-01-16T01:53:23;95545.63;;;6.43;66.37
20015;BME280;61787;42.022;23.078;2024-01-16T01:54:26;95548.28;;;6.46;66.35
20015;BME280;61787;42.022;23.078;2024-01-16T01:55:28;95542.09;;;6.46;66.09
20015;BME280;61787;42.022;23.078;2024-01-16T01:56:30;95531.66;;;6.48;65.95
20015;BME280;61787;42.022;23.078;2024-01-16T01:57:33;95537.47;;;6.46;65.97
20015;BME280;61787;42.022;23.078;2024-01-16T01:58:36;95516.56;;;6.47;65.99
20015;BME280;61787;42.022;23.078;2024-01-16T01:59:39;95518.13;;;6.48;65.80
20015;BME280;61787;42.022;23.078;2024-01-16T02:00:41;95514.63;;;6.47;65.60
20015;BME280;61787;42.022;23.078;2024-01-16T02:01:42;95520.41;;;6.49;65.60
20015;BME280;61787;42.022;23.078;2024-01-16T02:02:45;95523.47;;;6.52;65.64
20015;BME280;61787;42.022;23.078;2024-01-16T02:03:49;95522.66;;;6.55;65.55
20015;BME280;61787;42.022;23.078;2024-01-16T02:04:51;95516.03;;;6.59;65.28
20015;BME280;61787;42.022;23.078;2024-01-16T02:05:53;95521.09;;;6.57;65.29
20015;BME280;61787;42.022;23.078;2024-01-16T02:06:55;95522.59;;;6.58;65.38
20015;BME280;61787;42.022;23.078;2024-01-16T02:07:58;95525.31;;;6.58;65.32
20015;BME280;61787;42.022;23.078;2024-01-16T02:08:59;95533.44;;;6.58;65.39
20015;BME280;61787;42.022;23.078;2024-01-16T02:10:01;95522.19;;;6.60;65.31
20015;BME280;61787;42.022;23.078;2024-01-16T02:11:03;95536.09;;;6.62;65.23
20015;BME280;61787;42.022;23.078;2024-01-16T02:12:06;95536.88;;;6.62;65.19
20015;BME280;61787;42.022;23.078;2024-01-16T02:13:08;95534.16;;;6.62;65.10
20015;BME280;61787;42.022;23.078;2024-01-16T02:14:10;95548.47;;;6.63;65.01
20015;BME280;61787;42.022;23.078;2024-01-16T02:15:11;95540.75;;;6.61;64.72
20015;BME280;61787;42.022;23.078;2024-01-16T02:16:20;95537.69;;;6.59;64.86
20015;BME280;61787;42.022;23.078;2024-01-16T02:17:22;95527.66;;;6.56;65.05
20015;BME280;61787;42.022;23.078;2024-01-16T02:18:24;95532.31;;;6.56;65.00
20015;BME280;61787;42.022;23.078;2024-01-16T02:19:26;95538.91;;;6.55;64.98
20015;BME280;61787;42.022;23.078;2024-01-16T02:20:27;95534.25;;;6.55;64.99
20015;BME280;61787;42.022;23.078;2024-01-16T02:21:49;95541.19;;;6.56;64.92
20015;BME280;61787;42.022;23.078;2024-01-16T02:22:53;95538.50;;;6.56;64.86
20015;BME280;61787;42.022;23.078;2024-01-16T02:23:56;95544.66;;;6.57;64.88
20015;BME280;61787;42.022;23.078;2024-01-16T02:24:58;95536.97;;;6.55;64.91
20015;BME280;61787;42.022;23.078;2024-01-16T02:26:01;95535.78;;;6.56;64.75
20015;BME280;61787;42.022;23.078;2024-01-16T02:27:03;95544.25;;;6.58;64.71
20015;BME280;61787;42.022;23.078;2024-01-16T02:28:05;95534.56;;;6.61;64.66
20015;BME280;61787;42.022;23.078;2024-01-16T02:29:07;95521.03;;;6.61;64.66
20015;BME280;61787;42.022;23.078;2024-01-16T02:30:08;95522.56;;;6.62;64.61
20015;BME280;61787;42.022;23.078;2024-01-16T02:31:10;95531.03;;;6.64;64.47
20015;BME280;61787;42.022;23.078;2024-01-16T02:32:12;95532.56;;;6.65;64.19
20015;BME280;61787;42.022;23.078;2024-01-16T02:33:15;95541.19;;;6.56;64.60
20015;BME280;61787;42.022;23.078;2024-01-16T02:34:17;95539.88;;;6.41;65.25
20015;BME280;61787;42.022;23.078;2024-01-16T02:35:18;95549.31;;;6.25;65.75
20015;BME280;61787;42.022;23.078;2024-01-16T02:36:21;95549.31;;;6.25;65.81
20015;BME280;61787;42.022;23.078;2024-01-16T02:37:22;95543.91;;;6.25;65.57
20015;BME280;61787;42.022;23.078;2024-01-16T02:38:24;95546.97;;;6.27;65.69
20015;BME280;61787;42.022;23.078;2024-01-16T02:39:26;95543.56;;;6.23;65.62
20015;BME280;61787;42.022;23.078;2024-01-16T02:40:27;95543.22;;;6.18;65.76
20015;BME280;61787;42.022;23.078;2024-01-16T02:41:29;95549.03;;;6.16;65.87
20015;BME280;61787;42.022;23.078;2024-01-16T02:42:31;95552.91;;;6.15;66.08
20015;BME280;61787;42.022;23.078;2024-01-16T02:43:32;95558.31;;;6.15;66.10
20015;BME280;61787;42.022;23.078;2024-01-16T02:44:34;95550.19;;;6.15;66.06
20015;BME280;61787;42.022;23.078;2024-01-16T02:45:36;95552.56;;;6.13;66.06
20015;BME280;61787;42.022;23.078;2024-01-16T02:46:37;95544.78;;;6.15;66.02
20015;BME280;61787;42.022;23.078;2024-01-16T02:47:40;95546.34;;;6.16;65.97
20015;BME280;61787;42.022;23.078;2024-01-16T02:48:42;95551.03;;;6.12;66.37
20015;BME280;61787;42.022;23.078;2024-01-16T02:49:44;95543.00;;;6.05;66.63
20015;BME280;61787;42.022;23.078;2024-01-16T02:50:46;95536.84;;;6.01;66.78
20015;BME280;61787;42.022;23.078;2024-01-16T02:51:47;95542.25;;;6.01;66.99
20015;BME280;61787;42.022;23.078;2024-01-16T02:52:49;95543.44;;;6.00;67.21
20015;BME280;61787;42.022;23.078;2024-01-16T02:53:51;95546.53;;;5.98;67.09
20015;BME280;61787;42.022;23.078;2024-01-16T02:54:52;95546.53;;;5.98;67.18
20015;BME280;61787;42.022;23.078;2024-01-16T02:55:54;95546.56;;;5.95;67.25
20015;BME280;61787;42.022;23.078;2024-01-16T02:56:56;95557.75;;;5.93;67.58
20015;BME280;61787;42.022;23.078;2024-01-16T02:57:57;95563.94;;;5.93;67.54
20015;BME280;61787;42.022;23.078;2024-01-16T02:58:59;95571.28;;;5.93;67.48
20015;BME280;61787;42.022;23.078;2024-01-16T03:00:01;95574.41;;;5.91;67.55
20015;BME280;61787;42.022;23.078;2024-01-16T03:01:02;95580.56;;;5.92;67.55
20015;BME280;61787;42.022;23.078;2024-01-16T03:02:04;95573.63;;;5.91;67.65
20015;BME280;61787;42.022;23.078;2024-01-16T03:03:06;95580.16;;;5.93;67.60
20015;BME280;61787;42.022;23.078;2024-01-16T03:04:09;95575.94;;;5.96;67.45
20015;BME280;61787;42.022;23.078;2024-01-16T03:05:11;95576.66;;;6.00;67.35
20015;BME280;61787;42.022;23.078;2024-01-16T03:06:25;95584.38;;;6.02;67.23
20015;BME280;61787;42.022;23.078;2024-01-16T03:07:27;95583.19;;;6.03;67.12
20015;BME280;61787;42.022;23.078;2024-01-16T03:08:28;95578.97;;;6.02;67.26
20015;BME280;61787;42.022;23.078;2024-01-16T03:09:31;95575.84;;;6.03;67.27
20015;BME280;61787;42.022;23.078;2024-01-16T03:10:32;95577.66;;;6.14;66.84
20015;BME280;61787;42.022;23.078;2024-01-16T03:11:34;95580.41;;;6.10;66.98
20015;BME280;61787;42.022;23.078;2024-01-16T03:12:35;95578.88;;;6.09;67.33
20015;BME280;61787;42.022;23.078;2024-01-16T03:13:37;95580.88;;;6.05;67.54
20015;BME280;61787;42.022;23.078;2024-01-16T03:14:39;95585.50;;;6.04;67.46
20015;BME280;61787;42.022;23.078;2024-01-16T03:15:41;95582.03;;;6.04;67.49
20015;BME280;61787;42.022;23.078;2024-01-16T03:16:42;95587.38;;;6.11;67.48
20015;BME280;61787;42.022;23.078;2024-01-16T03:17:44;95590.81;;;6.11;67.26
20015;BME280;61787;42.022;23.078;2024-01-16T03:18:45;95586.97;;;6.13;66.98
20015;BME280;61787;42.022;23.078;2024-01-16T03:19:47;95581.22;;;6.07;67.31
20015;BME280;61787;42.022;23.078;2024-01-16T03:20:49;95577.34;;;6.08;67.42
20015;BME280;61787;42.022;23.078;2024-01-16T03:21:51;95579.69;;;6.06;67.26
20015;BME280;61787;42.022;23.078;2024-01-16T03:22:53;95583.53;;;6.08;67.11
20015;BME280;61787;42.022;23.078;2024-01-16T03:23:54;95578.53;;;6.07;67.24
20015;BME280;61787;42.022;23.078;2024-01-16T03:24:56;95585.53;;;6.01;67.38
20015;BME280;61787;42.022;23.078;2024-01-16T03:25:58;95580.16;;;5.97;67.62
20015;BME280;61787;42.022;23.078;2024-01-16T03:26:59;95590.22;;;5.97;67.61
20015;BME280;61787;42.022;23.078;2024-01-16T03:28:01;95595.63;;;5.97;67.75
20015;BME280;61787;42.022;23.078;2024-01-16T03:29:03;95596.38;;;5.97;67.62
20015;BME280;61787;42.022;23.078;2024-01-16T03:30:05;95597.56;;;5.96;67.66
20015;BME280;61787;42.022;23.078;2024-01-16T03:31:08;95600.25;;;6.00;67.80
20015;BME280;61787;42.022;23.078;2024-01-16T03:32:10;95601.38;;;6.02;67.55
20015;BME280;61787;42.022;23.078;2024-01-16T03:33:11;95605.22;;;6.05;67.45
20015;BME280;61787;42.022;23.078;2024-01-16T03:34:13;95608.66;;;6.09;67.13
20015;BME280;61787;42.022;23.078;2024-01-16T03:35:15;95606.31;;;6.11;67.19
20015;BME280;61787;42.022;23.078;2024-01-16T03:36:17;95600.44;;;6.16;67.01
20015;BME280;61787;42.022;23.078;2024-01-16T03:37:19;95602.75;;;6.18;66.94
20015;BME280;61787;42.022;23.078;2024-01-16T03:38:21;95606.59;;;6.20;66.55
20015;BME280;61787;42.022;23.078;2024-01-16T03:39:22;95610.84;;;6.21;66.62
20015;BME280;61787;42.022;23.078;2024-01-16T03:40:24;95621.66;;;6.21;66.46
20015;BME280;61787;42.022;23.078;2024-01-16T03:41:26;95618.59;;;6.19;66.55
20015;BME280;61787;42.022;23.078;2024-01-16T03:42:27;95624.00;;;6.19;66.36
20015;BME280;61787;42.022;23.078;2024-01-16T03:43:29;95624.41;;;6.18;66.52
20015;BME280;61787;42.022;23.078;2024-01-16T03:44:31;95627.13;;;6.18;66.51
20015;BME280;61787;42.022;23.078;2024-01-16T03:45:33;95626.31;;;6.17;66.47
20015;BME280;61787;42.022;23.078;2024-01-16T03:46:34;95625.53;;;6.20;66.66
20015;BME280;61787;42.022;23.078;2024-01-16T03:47:36;95629.00;;;6.21;66.51
20015;BME280;61787;42.022;23.078;2024-01-16T03:48:38;95619.72;;;6.22;66.45
20015;BME280;61787;42.022;23.078;2024-01-16T03:49:41;95623.53;;;6.24;66.26
20015;BME280;61787;42.022;23.078;2024-01-16T03:50:42;95627.41;;;6.27;66.33
20015;BME280;61787;42.022;23.078;2024-01-16T03:51:45;95632.06;;;6.26;66.22
20015;BME280;61787;42.022;23.078;2024-01-16T03:52:48;95631.25;;;6.26;66.14
20015;BME280;61787;42.022;23.078;2024-01-16T03:53:49;95635.97;;;6.22;66.51
20015;BME280;61787;42.022;23.078;2024-01-16T03:54:51;95637.47;;;6.26;66.31
20015;BME280;61787;42.022;23.078;2024-01-16T03:55:52;95636.00;;;6.18;66.74
20015;BME280;61787;42.022;23.078;2024-01-16T03:56:54;95636.00;;;6.18;66.82
20015;BME280;61787;42.022;23.078;2024-01-16T03:57:57;95644.56;;;6.09;67.13
20015;BME280;61787;42.022;23.078;2024-01-16T03:58:58;95646.19;;;6.03;67.20
20015;BME280;61787;42.022;23.078;2024-01-16T04:00:00;95638.91;;;5.97;67.51
20015;BME280;61787;42.022;23.078;2024-01-16T04:01:02;95637.75;;;5.94;67.65
20015;BME280;61787;42.022;23.078;2024-01-16T04:02:04;95646.63;;;5.95;67.55
20015;BME280;61787;42.022;23.078;2024-01-16T04:03:05;95644.78;;;5.84;68.15
20015;BME280;61787;42.022;23.078;2024-01-16T04:04:08;95642.84;;;5.85;68.18
20015;BME280;61787;42.022;23.078;2024-01-16T04:05:11;95639.38;;;5.84;68.16
20015;BME280;61787;42.022;23.078;2024-01-16T04:06:19;95648.66;;;5.83;68.44
20015;BME280;61787;42.022;23.078;2024-01-16T04:07:22;95644.41;;;5.82;68.46
20015;BME280;61787;42.022;23.078;2024-01-16T04:08:25;95640.56;;;5.83;68.39
20015;BME280;61787;42.022;23.078;2024-01-16T04:09:26;95647.13;;;5.82;68.55
20015;BME280;61787;42.022;23.078;2024-01-16T04:10:28;95646.34;;;5.85;68.84
20015;BME280;61787;42.022;23.078;2024-01-16T04:11:29;95652.91;;;5.84;68.84
20015;BME280;61787;42.022;23.078;2024-01-16T04:12:31;95650.66;;;5.76;69.37
20015;BME280;61787;42.022;23.078;2024-01-16T04:13:33;95649.13;;;5.74;69.22
20015;BME280;61787;42.022;23.078;2024-01-16T04:14:34;95650.69;;;5.72;69.42
20015;BME280;61787;42.022;23.078;2024-01-16T04:15:38;95651.06;;;5.70;69.58
20015;BME280;61787;42.022;23.078;2024-01-16T04:16:40;95653.75;;;5.74;69.47
20015;BME280;61787;42.022;23.078;2024-01-16T04:17:42;95650.31;;;5.70;69.71
20015;BME280;61787;42.022;23.078;2024-01-16T04:18:44;95659.69;;;5.58;70.51
20015;BME280;61787;42.022;23.078;2024-01-16T04:19:46;95660.09;;;5.57;70.32
20015;BME280;61787;42.022;23.078;2024-01-16T04:20:47;95670.91;;;5.57;70.42
20015;BME280;61787;42.022;23.078;2024-01-16T04:21:49;95667.41;;;5.56;70.42
20015;BME280;61787;42.022;23.078;2024-01-16T04:22:51;95670.09;;;5.56;70.43
20015;BME280;61787;42.022;23.078;2024-01-16T04:23:52;95668.56;;;5.59;70.44
20015;BME280;61787;42.022;23.078;2024-01-16T04:24:54;95668.16;;;5.60;70.59
20015;BME280;61787;42.022;23.078;2024-01-16T04:25:56;95666.66;;;5.55;70.93
20015;BME280;61787;42.022;23.078;2024-01-16T04:26:57;95664.34;;;5.54;71.04
20015;BME280;61787;42.022;23.078;2024-01-16T04:27:59;95670.13;;;5.52;71.03
20015;BME280;61787;42.022;23.078;2024-01-16T04:29:04;95672.13;;;5.45;71.12
20015;BME280;61787;42.022;23.078;2024-01-16T04:30:06;95681.38;;;5.47;71.20
20015;BME280;61787;42.022;23.078;2024-01-16T04:31:08;95674.78;;;5.52;70.88
20015;BME280;61787;42.022;23.078;2024-01-16T04:32:10;95689.06;;;5.52;70.82
20015;BME280;61787;42.022;23.078;2024-01-16T04:33:12;95685.97;;;5.54;70.83
20015;BME280;61787;42.022;23.078;2024-01-16T04:34:14;95685.19;;;5.53;71.02
20015;BME280;61787;42.022;23.078;2024-01-16T04:35:15;95685.56;;;5.55;70.89
20015;BME280;61787;42.022;23.078;2024-01-16T04:36:17;95692.53;;;5.57;70.95
20015;BME280;61787;42.022;23.078;2024-01-16T04:37:19;95696.38;;;5.55;70.81
20015;BME280;61787;42.022;23.078;2024-01-16T04:38:21;95698.31;;;5.55;70.78
20015;BME280;61787;42.022;23.078;2024-01-16T04:39:22;95696.78;;;5.50;71.05
20015;BME280;61787;42.022;23.078;2024-01-16T04:40:24;95707.63;;;5.47;71.06
20015;BME280;61787;42.022;23.078;2024-01-16T04:41:26;95711.09;;;5.51;71.07
20015;BME280;61787;42.022;23.078;2024-01-16T04:42:27;95705.69;;;5.51;71.08
20015;BME280;61787;42.022;23.078;2024-01-16T04:43:29;95706.81;;;5.53;70.94
20015;BME280;61787;42.022;23.078;2024-01-16T04:44:31;95713.81;;;5.51;70.81
20015;BME280;61787;42.022;23.078;2024-01-16T04:45:32;95719.22;;;5.47;70.94
20015;BME280;61787;42.022;23.078;2024-01-16T04:46:34;95720.75;;;5.48;70.99
20015;BME280;61787;42.022;23.078;2024-01-16T04:47:36;95722.31;;;5.46;71.05
20015;BME280;61787;42.022;23.078;2024-01-16T04:48:38;95719.63;;;5.46;71.11
20015;BME280;61787;42.022;23.078;2024-01-16T04:49:41;95714.97;;;5.46;71.14
20015;BME280;61787;42.022;23.078;2024-01-16T04:50:43;95714.59;;;5.44;71.02
20015;BME280;61787;42.022;23.078;2024-01-16T04:51:46;95713.06;;;5.40;71.05
20015;BME280;61787;42.022;23.078;2024-01-16T04:52:48;95723.91;;;5.36;71.16
20015;BME280;61787;42.022;23.078;2024-01-16T04:53:54;95719.28;;;5.37;71.15
20015;BME280;61787;42.022;23.078;2024-01-16T04:54:55;95725.09;;;5.31;71.27
20015;BME280;61787;42.022;23.078;2024-01-16T04:55:57;95717.03;;;5.28;71.32
20015;BME280;61787;42.022;23.078;2024-01-16T04:56:58;95718.56;;;5.25;71.47
20015;BME280;61787;42.022;23.078;2024-01-16T04:58:00;95717.03;;;5.24;71.50
20015;BME280;61787;42.022;23.078;2024-01-16T04:59:02;95709.69;;;5.25;71.25
20015;BME280;61787;42.022;23.078;2024-01-16T05:00:04;95720.53;;;5.18;71.41
20015;BME280;61787;42.022;23.078;2024-01-16T05:01:08;95723.66;;;5.12;71.63
20015;BME280;61787;42.022;23.078;2024-01-16T05:02:10;95723.41;;;4.82;72.60
20015;BME280;61787;42.022;23.078;2024-01-16T05:03:12;95731.53;;;4.64;73.52
20015;BME280;61787;42.022;23.078;2024-01-16T05:04:14;95730.81;;;4.56;73.78
20015;BME280;61787;42.022;23.078;2024-01-16T05:05:15;95725.81;;;4.40;74.62
20015;BME280;61787;42.022;23.078;2024-01-16T05:06:17;95733.13;;;4.32;74.82
20015;BME280;61787;42.022;23.078;2024-01-16T05:07:19;95735.84;;;4.25;75.26
20015;BME280;61787;42.022;23.078;2024-01-16T05:08:23;95731.63;;;4.20;75.68
20015;BME280;61787;42.022;23.078;2024-01-16T05:09:25;95745.88;;;4.14;75.93
20015;BME280;61787;42.022;23.078;2024-01-16T05:10:27;95739.34;;;4.15;75.99
20015;BME280;61787;42.022;23.078;2024-01-16T05:11:29;95742.81;;;4.12;76.30
20015;BME280;61787;42.022;23.078;2024-01-16T05:12:30;95743.94;;;4.18;76.40
20015;BME280;61787;42.022;23.078;2024-01-16T05:13:32;95749.34;;;4.21;76.28
20015;BME280;61787;42.022;23.078;2024-01-16T05:14:33;95755.13;;;4.27;76.15
20015;BME280;61787;42.022;23.078;2024-01-16T05:15:35;95758.22;;;4.36;76.75
20015;BME280;61787;42.022;23.078;2024-01-16T05:16:37;95757.81;;;4.42;76.18
20015;BME280;61787;42.022;23.078;2024-01-16T05:17:39;95752.03;;;4.39;76.06
20015;BME280;61787;42.022;23.078;2024-01-16T05:18:43;95757.84;;;4.34;76.02
20015;BME280;61787;42.022;23.078;2024-01-16T05:19:45;95763.59;;;4.36;76.27
20015;BME280;61787;42.022;23.078;2024-01-16T05:20:47;95772.47;;;4.30;76.60
20015;BME280;61787;42.022;23.078;2024-01-16T05:21:49;95769.78;;;4.26;76.71
20015;BME280;61787;42.022;23.078;2024-01-16T05:22:51;95781.72;;;4.32;76.66
20015;BME280;61787;42.022;23.078;2024-01-16T05:23:52;95781.72;;;4.32;76.76
20015;BME280;61787;42.022;23.078;2024-01-16T05:24:54;95788.28;;;4.35;76.68
20015;BME280;61787;42.022;23.078;2024-01-16T05:25:55;95786.72;;;4.45;76.38
20015;BME280;61787;42.022;23.078;2024-01-16T05:26:57;95785.94;;;4.51;76.26
20015;BME280;61787;42.022;23.078;2024-01-16T05:27:59;95792.88;;;4.56;76.16
20015;BME280;61787;42.022;23.078;2024-01-16T05:29:00;95796.72;;;4.62;76.02